Great Falls (GTF/KGTF)

Map

Destinations

Information

Location
Great Falls , MT
Local Time
18:57 / 6:57 pm
GMT Time
01:57 / 1:57 am
Gates
Unassigned
No FAA reported delays
METAR KGTF 250153Z 23013KT 10SM CLR 03/M06 A2995 RMK AO2 SLP172 T00281061
TAF KGTF 242334Z 2500/2524 23014G20KT P6SM FEW120 SCT200 FM251800 22019G28KT P6SM SCT200